Aeroporto :
LOGIN :

Iscrizione | Disclaimer

   EN    FR    IT 

 










Sommario :    VFR   VFR Marginale   IFR   IFR Intensivo   IFR Molto Intensivo
Visibilità : 
Base nubi : 
>= 8 km
>= 3000ft
5 / 8 km
1000 / 3000 ft
1500m / 5 km
500 / 1000 ft
800 / 1500m
200 / 500 ft
< 800m
< 200 ft
Simboli :   Temporali  Nebbia  Neve Forte  Precipitazioni Forti  Vento > 20 kt
SIGMETs :   Varie  Temporali  Ghiacco  Turbolenza  Onda orograficha  Ceneri Vulcaniche






- Altitudine del aeroporto : 963 ft
- Codice IATA : TGM


LRTM - Transilvania Târgu Mureş Int.

ULTIMO METAR :
  • 062200Z AUTO 00000KT 9999 NCD 01/M09 Q1034

METARs OBSOLETI :
  • 062130Z AUTO 22003KT 9999 NCD 04/M10 Q1034
  • 062100Z AUTO 08003KT 040V150 9999 NCD 05/M10 Q1033
  • 062030Z AUTO 10002KT 030V180 9999 NCD 05/M10 Q1033
  • 062000Z AUTO 09003KT 9999 NCD 05/M09 Q1033
  • 061930Z AUTO 07005KT 9999 NCD 06/M09 Q1033
  • 061900Z AUTO 06003KT 020V110 9999 NCD 07/M10 Q1033

TAF TAF LRTM
Valido dal 06 a 15 ore il 07 a 00 ore UTC


061400Z 0615/0624 11010KT CAVOK
BECMG 0616/0618 VRB04KT



MetMap, La meteo Aeronautica in un colpo d'occhio ! - Copyright ORBIFLY Dicembre 2007 - Disclaimer

ORBIFLY MET'MAP TEAM :

Programmazione e sviluppo : Alexandra Zaïnal
Concezione : Baudouin d'Aumeries
Aiuto per la programmazione : Marc-Olivier Méhu
Supporto tecnico e logistico : Manuel Goepfert
Aiuto per la traduzione : Arnaldo La Scala

Contatto : metmap@orbifly.com




FONTI E CREDITI :

   NOAA